Time;durP1;ratioP1;P1;durP2;ratioP2;P2;SDS_P1;SDS_P2;PMS_P1;PMS_P2;Temp;Humidity;BMP_temperature;BMP_pressure;BME280_temperature;BME280_humidity;BME280_pressure;Samples;Min_cycle;Max_cycle;Signal;HPM_P1;HPM_P2
2022/05/08 00:02:22;;;;;;;15.68;7.13;;;;;;;13.18;96.34;102605.41;5046359;28;20542;-87
2022/05/08 00:04:51;;;;;;;16.45;7.85;;;;;;;13.11;96.97;102601.56;5064030;28;20070;-87
2022/05/08 00:07:17;;;;;;;14.55;6.93;;;;;;;13.05;97.71;102602.97;5063809;28;20079;-87
2022/05/08 00:09:43;;;;;;;19.33;7.25;;;;;;;13.04;97.87;102617.34;5064309;28;20028;-87
2022/05/08 00:12:11;;;;;;;15.18;7.25;;;;;;;12.98;98.50;102614.34;5061912;28;20079;-87
2022/05/08 00:14:37;;;;;;;15.45;7.57;;;;;;;12.96;98.09;102609.13;5063440;28;20033;-84
2022/05/08 00:17:02;;;;;;;16.83;7.80;;;;;;;12.92;98.38;102607.72;5063917;28;20073;-84
2022/05/08 00:19:28;;;;;;;14.98;7.57;;;;;;;12.90;99.42;102615.03;5063542;28;20073;-85
2022/05/08 00:21:53;;;;;;;22.33;8.55;;;;;;;12.82;99.88;102613.00;5061685;28;20025;-85
2022/05/08 00:24:18;;;;;;;18.23;7.72;;;;;;;12.85;99.35;102610.06;5062642;28;20024;-85
2022/05/08 00:26:43;;;;;;;20.02;8.00;;;;;;;12.85;99.12;102610.06;5061972;28;20017;-84
2022/05/08 00:29:10;;;;;;;13.77;7.53;;;;;;;12.89;98.84;102613.31;5061496;28;20158;-85
2022/05/08 00:31:36;;;;;;;15.55;7.72;;;;;;;12.92;98.81;102613.06;5045256;28;20490;-85
2022/05/08 00:34:03;;;;;;;15.15;7.93;;;;;;;12.96;98.86;102617.16;5063800;28;20047;-84
2022/05/08 00:36:28;;;;;;;15.90;7.93;;;;;;;12.87;98.82;102607.25;5061580;28;20470;-84
2022/05/08 00:38:55;;;;;;;19.02;8.13;;;;;;;12.82;98.19;102609.50;5063369;28;20099;-85
2022/05/08 00:41:21;;;;;;;15.52;7.50;;;;;;;12.82;98.35;102613.00;5079726;28;20109;-84
2022/05/08 00:43:46;;;;;;;22.55;8.02;;;;;;;12.71;98.82;102610.38;5054732;28;20517;-85
2022/05/08 00:46:13;;;;;;;17.70;7.78;;;;;;;12.74;99.65;102615.50;5057018;28;20051;-86
2022/05/08 00:48:42;;;;;;;15.15;8.48;;;;;;;12.76;100.00;102612.69;5061136;28;20029;-85
2022/05/08 00:51:10;;;;;;;14.93;8.07;;;;;;;12.74;99.55;102611.97;5063967;28;20495;-85
2022/05/08 00:53:48;;;;;;;18.17;8.43;;;;;;;12.73;99.64;102611.13;5064145;28;20025;-85
2022/05/08 00:56:15;;;;;;;20.02;8.38;;;;;;;12.68;99.55;102614.19;5062908;28;20020;-85
2022/05/08 00:58:42;;;;;;;22.17;8.60;;;;;;;12.59;100.00;102608.78;5045295;28;20029;-86
2022/05/08 01:01:11;;;;;;;21.13;9.13;;;;;;;12.55;99.75;102620.75;5064237;28;20021;-84
2022/05/08 01:03:38;;;;;;;20.63;9.00;;;;;;;12.49;100.00;102617.59;5062833;28;20046;-85
2022/05/08 01:06:07;;;;;;;16.63;8.65;;;;;;;12.49;100.00;102620.28;5062217;28;20086;-85
2022/05/08 01:08:34;;;;;;;21.52;9.05;;;;;;;12.41;100.00;102616.56;5053674;28;20056;-85
2022/05/08 01:11:04;;;;;;;20.00;9.43;;;;;;;12.39;100.00;102619.38;5007980;28;1066879;-85
2022/05/08 01:13:30;;;;;;;18.80;9.20;;;;;;;12.32;100.00;102627.06;5061093;28;20498;-87
2022/05/08 01:15:56;;;;;;;22.52;9.25;;;;;;;12.26;100.00;102618.69;5062986;28;20024;-86
2022/05/08 01:18:21;;;;;;;18.30;8.93;;;;;;;12.18;100.00;102615.81;5062838;28;20026;-87
2022/05/08 01:20:47;;;;;;;16.42;8.98;;;;;;;12.10;100.00;102625.34;5059502;28;20499;-86
2022/05/08 01:23:15;;;;;;;19.02;9.88;;;;;;;12.03;100.00;102623.28;5062421;28;20065;-87
2022/05/08 01:25:54;;;;;;;17.75;9.27;;;;;;;11.98;100.00;102626.31;5062283;28;20029;-87
2022/05/08 01:28:21;;;;;;;22.52;9.93;;;;;;;12.01;100.00;102630.59;5042936;28;20032;-87
2022/05/08 01:30:52;;;;;;;21.15;10.25;;;;;;;12.00;100.00;102612.81;5061751;28;20150;-88
2022/05/08 01:33:17;;;;;;;18.48;8.93;;;;;;;12.03;100.00;102632.19;5062147;28;20021;-87
2022/05/08 01:35:43;;;;;;;19.00;9.88;;;;;;;12.06;100.00;102631.91;5061458;28;20051;-88
2022/05/08 01:38:12;;;;;;;18.55;9.88;;;;;;;12.03;100.00;102626.81;5043487;28;20471;-87
2022/05/08 01:40:38;;;;;;;22.58;9.68;;;;;;;12.03;100.00;102634.00;5061416;28;20039;-87
2022/05/08 01:43:04;;;;;;;23.75;9.95;;;;;;;12.04;100.00;102628.50;5061088;28;20099;-88
2022/05/08 01:45:30;;;;;;;19.45;9.85;;;;;;;12.01;100.00;102631.44;5061236;28;20032;-87
2022/05/08 01:50:40;;;;;;;17.95;9.68;;;;;;;12.05;100.00;102627.53;5059284;28;20562;-87
2022/05/08 01:53:06;;;;;;;19.98;10.23;;;;;;;11.98;99.48;102636.19;5042735;28;20032;-85
2022/05/08 01:55:31;;;;;;;20.67;10.30;;;;;;;11.93;99.79;102639.25;5060424;28;20188;-86
2022/05/08 01:57:58;;;;;;;17.60;9.77;;;;;;;11.88;99.36;102636.06;5061000;28;20024;-86
2022/05/08 02:00:25;;;;;;;22.00;10.30;;;;;;;11.79;99.46;102637.66;5060911;28;20032;-84
2022/05/08 02:02:51;;;;;;;21.67;10.38;;;;;;;11.76;100.00;102645.94;5041456;28;20142;-86
2022/05/08 02:05:19;;;;;;;20.17;10.68;;;;;;;11.75;99.70;102636.22;5022171;28;20444;-86
2022/05/08 02:07:46;;;;;;;22.35;10.52;;;;;;;11.83;100.00;102640.94;5041440;28;20029;-85
2022/05/08 02:10:13;;;;;;;22.02;10.48;;;;;;;11.83;99.55;102641.81;5042011;28;20024;-85
2022/05/08 02:12:40;;;;;;;28.50;11.50;;;;;;;11.85;99.11;102647.88;5050870;28;20044;-83
2022/05/08 02:15:06;;;;;;;23.02;10.50;;;;;;;11.82;99.88;102656.16;5059162;28;20024;-85
2022/05/08 02:17:32;;;;;;;23.23;10.38;;;;;;;11.76;98.92;102654.84;5060601;28;20171;-87
2022/05/08 02:19:58;;;;;;;25.45;10.73;;;;;;;11.81;98.61;102653.59;5060813;28;20020;-86
2022/05/08 02:22:23;;;;;;;20.63;9.55;;;;;;;11.77;98.44;102656.53;5061990;28;20151;-83
2022/05/08 02:24:49;;;;;;;17.77;9.45;;;;;;;11.80;98.16;102663.47;5062714;28;20024;-84
2022/05/08 02:27:15;;;;;;;22.83;9.90;;;;;;;11.70;97.81;102657.16;5062982;28;20340;-84
2022/05/08 02:29:40;;;;;;;17.85;10.02;;;;;;;11.71;97.59;102659.72;5062251;28;20553;-83
2022/05/08 02:32:06;;;;;;;26.77;11.15;;;;;;;11.68;97.38;102662.63;5058765;28;20060;-85
2022/05/08 02:34:31;;;;;;;22.80;9.60;;;;;;;11.62;97.49;102654.25;5059349;28;20476;-87
2022/05/08 02:36:56;;;;;;;26.40;9.80;;;;;;;11.60;96.75;102658.88;5059874;28;20031;-87
2022/05/08 02:39:22;;;;;;;24.73;9.25;;;;;;;11.49;94.88;102662.41;5062278;28;20023;-83
2022/05/08 02:41:47;;;;;;;25.10;9.38;;;;;;;11.43;95.54;102669.09;5062738;28;20020;-83
2022/05/08 02:44:12;;;;;;;26.90;9.70;;;;;;;11.44;95.69;102665.47;5058712;28;20024;-86
2022/05/08 02:46:38;;;;;;;25.25;8.55;;;;;;;11.36;94.99;102660.69;5060341;28;20071;-85
2022/05/08 02:49:03;;;;;;;26.63;9.00;;;;;;;11.34;94.76;102667.16;5060925;28;20024;-83
2022/05/08 02:51:28;;;;;;;27.30;9.05;;;;;;;11.31;95.00;102676.28;5040474;28;20460;-83
2022/05/08 02:53:54;;;;;;;25.13;8.23;;;;;;;11.29;94.29;102678.22;5040745;28;20029;-83
2022/05/08 02:59:07;;;;;;;27.80;8.35;;;;;;;11.25;93.82;102670.53;5030293;28;20075;-86
2022/05/08 03:01:32;;;;;;;24.65;8.00;;;;;;;11.24;93.95;102669.72;5055818;28;20083;-86
2022/05/08 03:03:58;;;;;;;24.55;8.30;;;;;;;11.26;94.08;102674.94;5040252;28;20025;-84
2022/05/08 03:06:23;;;;;;;29.10;8.10;;;;;;;11.21;94.34;102661.91;5039478;28;20480;-86
2022/05/08 03:08:51;;;;;;;20.67;7.90;;;;;;;11.27;94.77;102668.59;5040547;28;20056;-85
2022/05/08 03:11:25;;;;;;;27.35;7.53;;;;;;;11.28;96.75;102667.63;5044607;28;20135;-87
2022/05/08 03:13:51;;;;;;;27.58;8.07;;;;;;;11.29;96.61;102669.34;5080491;28;20043;-86
2022/05/08 03:16:17;;;;;;;28.30;7.90;;;;;;;11.25;94.55;102665.19;5080982;28;20525;-86
2022/05/08 03:18:45;;;;;;;27.80;7.05;;;;;;;11.22;94.90;102658.28;5080969;28;20044;-87
2022/05/08 03:21:12;;;;;;;27.63;7.63;;;;;;;11.20;96.56;102663.75;5080229;28;20032;-84
2022/05/08 03:23:39;;;;;;;26.65;7.60;;;;;;;11.18;97.74;102668.38;5079398;28;20042;-84
2022/05/08 03:26:04;;;;;;;29.15;7.20;;;;;;;11.15;96.43;102670.41;5079692;28;21073;-85
2022/05/08 03:28:31;;;;;;;30.92;7.85;;;;;;;11.15;98.42;102670.41;5079245;28;20081;-85
2022/05/08 03:30:57;;;;;;;25.67;7.30;;;;;;;11.16;97.45;102666.78;5080370;28;20473;-86
2022/05/08 03:33:22;;;;;;;24.73;7.28;;;;;;;11.08;98.03;102661.16;5079411;28;20104;-85
2022/05/08 03:35:48;;;;;;;29.92;7.90;;;;;;;11.11;96.50;102666.28;5061919;28;20064;-88
2022/05/08 03:38:13;;;;;;;25.13;7.43;;;;;;;11.04;96.10;102663.22;5081480;28;20106;-86
2022/05/08 03:40:39;;;;;;;27.23;7.38;;;;;;;11.03;95.25;102677.56;5047266;28;20073;-85
2022/05/08 03:43:04;;;;;;;23.85;6.93;;;;;;;10.96;94.52;102671.00;5044390;28;20029;-86
2022/05/08 03:45:30;;;;;;;33.88;6.97;;;;;;;10.95;93.67;102674.66;5049359;28;20031;-83
2022/05/08 03:47:56;;;;;;;25.88;6.88;;;;;;;10.86;92.94;102664.66;5065179;28;20046;-84
2022/05/08 03:50:22;;;;;;;31.73;7.43;;;;;;;10.83;92.37;102676.44;5066086;28;20008;-85
2022/05/08 03:52:48;;;;;;;32.63;6.90;;;;;;;10.74;92.70;102677.13;5066648;28;20031;-87
2022/05/08 03:55:15;;;;;;;25.02;6.60;;;;;;;10.74;92.32;102677.13;5066429;28;20016;-85
2022/05/08 03:57:41;;;;;;;26.42;5.72;;;;;;;10.73;91.72;102681.66;5043005;28;20021;-86
2022/05/08 04:00:07;;;;;;;26.92;6.15;;;;;;;10.67;91.90;102676.75;5060738;28;20050;-85
2022/05/08 04:02:33;;;;;;;24.35;5.78;;;;;;;10.68;93.88;102683.81;5062435;28;20392;-83
2022/05/08 04:05:00;;;;;;;28.00;6.32;;;;;;;10.64;91.22;102677.84;5043192;28;20032;-85
2022/05/08 04:07:26;;;;;;;32.30;6.75;;;;;;;10.61;91.98;102687.94;5059677;28;20028;-83
2022/05/08 04:09:51;;;;;;;31.27;5.88;;;;;;;10.59;92.61;102685.38;5043524;28;20029;-83
2022/05/08 04:12:16;;;;;;;26.63;5.88;;;;;;;10.60;92.38;102687.06;5038301;28;20385;-83
2022/05/08 04:14:42;;;;;;;41.13;6.43;;;;;;;10.56;93.37;102687.41;5041264;28;20371;-84
2022/05/08 04:17:07;;;;;;;29.58;5.75;;;;;;;10.59;93.46;102688.03;5040947;28;20376;-83
2022/05/08 04:19:33;;;;;;;31.92;6.45;;;;;;;10.65;93.87;102681.38;5039841;28;20045;-83
2022/05/08 04:24:43;;;;;;;25.90;6.03;;;;;;;10.56;93.16;102690.09;5040182;28;20432;-83
2022/05/08 04:27:08;;;;;;;32.72;5.95;;;;;;;10.60;93.93;102692.41;5040048;28;20107;-84
2022/05/08 04:29:33;;;;;;;34.63;6.10;;;;;;;10.58;92.88;102682.81;5039985;28;20472;-84
2022/05/08 04:31:59;;;;;;;26.75;5.60;;;;;;;10.63;93.65;102683.31;5040329;28;20031;-83
2022/05/08 04:34:24;;;;;;;28.35;5.53;;;;;;;10.62;93.94;102685.13;5037985;28;20047;-84
2022/05/08 04:36:49;;;;;;;37.28;6.60;;;;;;;10.61;94.33;102687.94;5037207;28;20051;-85
2022/05/08 04:39:15;;;;;;;24.25;5.53;;;;;;;10.62;93.93;102690.47;5040060;28;20021;-84
2022/05/08 04:41:40;;;;;;;30.80;5.47;;;;;;;10.68;94.60;102694.50;5039651;28;20436;-83
2022/05/08 04:44:05;;;;;;;28.17;5.60;;;;;;;10.62;92.82;102685.13;5041624;28;20364;-84
2022/05/08 04:46:33;;;;;;;36.72;5.72;;;;;;;10.55;93.42;102693.72;5026984;28;20454;-84
2022/05/08 04:48:58;;;;;;;27.15;4.97;;;;;;;10.50;93.19;102698.56;5045269;28;20024;-85
2022/05/08 04:51:23;;;;;;;36.33;5.50;;;;;;;10.50;94.21;102695.88;5054990;28;20384;-86
2022/05/08 04:53:49;;;;;;;36.80;5.70;;;;;;;10.58;94.27;102699.69;5064293;28;20024;-84
2022/05/08 04:56:14;;;;;;;30.42;5.28;;;;;;;10.62;93.58;102706.50;5063609;28;20509;-82
2022/05/08 04:58:40;;;;;;;31.38;5.63;;;;;;;10.63;93.58;102702.84;5063265;28;20060;-84
2022/05/08 05:01:06;;;;;;;26.55;4.88;;;;;;;10.61;93.10;102706.63;5064940;28;20039;-85
2022/05/08 05:03:31;;;;;;;27.98;5.10;;;;;;;10.61;93.48;102714.66;5062923;28;20127;-83
2022/05/08 05:05:57;;;;;;;29.98;5.45;;;;;;;10.60;93.26;102715.59;5062911;28;20036;-84
2022/05/08 05:08:22;;;;;;;32.20;5.65;;;;;;;10.62;92.72;102719.00;5063010;28;20390;-85
2022/05/08 05:10:48;;;;;;;33.47;4.82;;;;;;;10.62;92.32;102724.34;5061946;28;20465;-84
2022/05/08 05:13:13;;;;;;;39.35;5.47;;;;;;;10.62;93.19;102727.88;5062117;28;20045;-83
2022/05/08 05:15:39;;;;;;;26.65;5.07;;;;;;;10.63;92.70;102726.06;5064219;28;20204;-84
2022/05/08 05:18:04;;;;;;;36.30;5.22;;;;;;;10.71;92.53;102722.78;5062978;28;20028;-85
2022/05/08 05:20:29;;;;;;;37.55;6.20;;;;;;;10.77;92.07;102727.69;5062217;28;20016;-85
2022/05/08 05:22:59;;;;;;;37.58;5.38;;;;;;;10.77;90.95;102731.22;5058637;28;20021;-83
2022/05/08 05:25:24;;;;;;;30.52;5.68;;;;;;;10.78;90.62;102729.41;5059264;28;20025;-82
2022/05/08 05:27:49;;;;;;;33.20;5.75;;;;;;;10.74;90.65;102731.47;5061836;28;20035;-84
2022/05/08 05:30:16;;;;;;;37.47;5.68;;;;;;;10.80;90.38;102733.66;5040847;28;20518;-85
2022/05/08 05:32:41;;;;;;;43.67;6.10;;;;;;;10.78;90.68;102745.44;5066227;28;20570;-84
2022/05/08 05:35:07;;;;;;;35.72;5.43;;;;;;;10.83;91.17;102745.94;5058631;28;20031;-84
2022/05/08 05:37:32;;;;;;;24.80;4.68;;;;;;;10.77;89.87;102747.25;5054430;28;20033;-84
2022/05/08 05:39:58;;;;;;;31.92;5.50;;;;;;;10.83;89.87;102753.97;5033448;28;20486;-83
2022/05/08 05:42:23;;;;;;;29.48;4.97;;;;;;;10.85;88.86;102754.69;5040151;28;20136;-83
2022/05/08 05:44:49;;;;;;;29.35;5.40;;;;;;;10.86;88.87;102759.06;5048431;28;20020;-84
2022/05/08 05:49:58;;;;;;;28.75;5.00;;;;;;;10.85;88.12;102773.41;5043198;28;20039;-83
2022/05/08 05:52:24;;;;;;;34.08;5.00;;;;;;;10.86;88.57;102763.56;5042145;28;20028;-83
2022/05/08 05:54:49;;;;;;;39.30;5.28;;;;;;;10.75;87.61;102770.56;5040017;28;20873;-83
2022/05/08 05:57:14;;;;;;;29.10;4.90;;;;;;;10.80;88.67;102778.25;5039375;28;20527;-84
2022/05/08 05:59:40;;;;;;;34.50;5.95;;;;;;;10.86;89.01;102772.41;5040460;28;20029;-83
2022/05/08 06:02:05;;;;;;;32.03;5.18;;;;;;;10.84;87.51;102779.72;5040189;28;20115;-84
2022/05/08 06:04:30;;;;;;;26.48;4.65;;;;;;;10.89;87.58;102777.53;5038778;28;20260;-84
2022/05/08 06:06:56;;;;;;;24.58;4.53;;;;;;;10.96;88.70;102784.16;5039243;28;20036;-84
2022/05/08 06:09:21;;;;;;;31.17;4.57;;;;;;;11.10;85.63;102779.56;5039761;28;20036;-83
2022/05/08 06:11:46;;;;;;;25.08;4.72;;;;;;;11.25;85.96;102786.41;5039900;28;20448;-84
2022/05/08 06:14:12;;;;;;;27.38;4.90;;;;;;;11.36;85.62;102796.28;5040687;28;20424;-83
2022/05/08 06:16:37;;;;;;;28.20;4.45;;;;;;;11.42;85.92;102795.81;5023833;28;20500;-83
2022/05/08 06:19:03;;;;;;;32.97;4.85;;;;;;;11.44;85.54;102788.53;5042927;28;20098;-82
2022/05/08 06:21:28;;;;;;;27.35;4.32;;;;;;;11.51;84.43;102789.75;5053932;28;20031;-83
2022/05/08 06:23:54;;;;;;;27.02;5.05;;;;;;;11.56;83.13;102795.59;5059790;28;20475;-83
2022/05/08 06:26:19;;;;;;;24.40;4.50;;;;;;;11.55;82.42;102790.38;5060149;28;20024;-82
2022/05/08 06:28:45;;;;;;;27.30;5.07;;;;;;;11.64;81.83;102802.16;5062510;28;20036;-82
2022/05/08 06:31:11;;;;;;;29.70;4.30;;;;;;;11.65;80.58;102806.56;5045386;28;20048;-82
2022/05/08 06:33:36;;;;;;;25.58;4.15;;;;;;;11.66;80.83;102809.13;5061102;28;20626;-82
2022/05/08 06:36:02;;;;;;;31.85;5.20;;;;;;;11.60;80.09;102806.91;5060336;28;20137;-82
2022/05/08 06:38:27;;;;;;;26.55;4.65;;;;;;;11.67;82.08;102808.13;5060681;28;20479;-83
2022/05/08 06:40:52;;;;;;;39.85;5.07;;;;;;;11.69;79.93;102808.88;5060793;28;20070;-82
2022/05/08 06:43:17;;;;;;;34.13;4.85;;;;;;;11.67;79.08;102799.25;5059249;28;20130;-83
2022/05/08 06:45:43;;;;;;;26.70;4.95;;;;;;;11.75;80.20;102807.53;5043402;28;20060;-83
2022/05/08 06:48:08;;;;;;;39.83;5.32;;;;;;;11.75;81.18;102797.69;5059601;28;20020;-83
2022/05/08 06:50:34;;;;;;;31.42;4.68;;;;;;;11.87;80.35;102809.25;5060533;28;20707;-84
2022/05/08 06:53:00;;;;;;;30.73;5.43;;;;;;;11.98;78.54;102818.28;5058697;28;20311;-83
2022/05/08 06:55:25;;;;;;;25.67;5.38;;;;;;;12.06;77.45;102813.19;5059716;28;20024;-83
2022/05/08 06:57:51;;;;;;;26.83;4.90;;;;;;;12.22;77.90;102810.97;5061067;28;20467;-82
2022/05/08 07:03:07;;;;;;;27.88;4.75;;;;;;;12.41;77.64;102820.22;5010962;28;20463;-82
2022/05/08 07:05:36;;;;;;;27.65;5.03;;;;;;;12.25;75.94;102812.53;5061145;28;20037;-83
2022/05/08 07:08:01;;;;;;;26.92;4.47;;;;;;;12.21;76.62;102822.66;5040482;28;20032;-83
2022/05/08 07:10:26;;;;;;;28.33;5.22;;;;;;;12.20;76.62;102815.59;5060256;28;20058;-83
2022/05/08 07:12:52;;;;;;;28.20;5.03;;;;;;;12.32;75.74;102819.97;5039910;28;20037;-84
2022/05/08 07:15:17;;;;;;;28.88;5.15;;;;;;;12.39;75.95;102833.72;5041346;28;20112;-83
2022/05/08 07:17:44;;;;;;;29.85;5.10;;;;;;;12.39;75.24;102823.00;5039346;28;20403;-82
2022/05/08 07:20:09;;;;;;;25.33;4.80;;;;;;;12.41;75.50;102820.22;5041702;28;20025;-83
2022/05/08 07:22:35;;;;;;;29.90;4.68;;;;;;;12.55;75.84;102832.47;5044038;28;20083;-81
2022/05/08 07:25:01;;;;;;;55.33;10.85;;;;;;;12.55;74.24;102833.31;5046261;28;20078;-83
2022/05/08 07:27:27;;;;;;;42.22;6.93;;;;;;;12.53;73.66;102834.44;5042142;28;20501;-85
2022/05/08 07:29:52;;;;;;;35.67;5.93;;;;;;;12.42;73.34;102837.97;5043445;28;20027;-84
2022/05/08 07:32:18;;;;;;;34.88;5.72;;;;;;;12.38;74.79;102836.53;5037576;28;20534;-87
2022/05/08 07:37:27;;;;;;;27.75;4.68;;;;;;;12.51;72.48;102826.53;5023074;28;20119;-86
2022/05/08 07:39:52;;;;;;;29.00;4.38;;;;;;;12.68;72.75;102835.88;5019863;28;20515;-83
2022/05/08 07:42:18;;;;;;;33.33;5.10;;;;;;;12.89;74.20;102843.97;5026606;28;20044;-84
2022/05/08 07:44:43;;;;;;;29.48;5.20;;;;;;;12.99;72.32;102839.53;5028150;28;20095;-83
2022/05/08 07:47:08;;;;;;;35.78;5.72;;;;;;;13.03;71.51;102837.44;5018736;28;20029;-84
2022/05/08 07:49:34;;;;;;;28.58;5.50;;;;;;;13.11;71.12;102834.97;5018301;28;20488;-84
2022/05/08 07:51:59;;;;;;;30.67;4.30;;;;;;;13.13;69.80;102840.22;5019494;28;20045;-84
2022/05/08 07:54:25;;;;;;;24.05;4.47;;;;;;;13.09;68.44;102831.56;5019416;28;20033;-84
2022/05/08 07:56:51;;;;;;;25.00;4.47;;;;;;;13.16;68.45;102842.63;5019067;28;20052;-83
2022/05/08 07:59:16;;;;;;;27.25;4.80;;;;;;;13.33;70.10;102849.31;5020144;28;20493;-84
2022/05/08 08:01:42;;;;;;;30.67;4.93;;;;;;;13.43;68.53;102843.00;5031517;28;20113;-83
2022/05/08 08:04:09;;;;;;;30.02;5.22;;;;;;;13.35;67.77;102850.00;5038612;28;20373;-83
2022/05/08 08:06:35;;;;;;;27.45;5.00;;;;;;;13.45;68.16;102844.72;5033675;28;20462;-82
2022/05/08 08:09:01;;;;;;;27.00;4.90;;;;;;;13.49;66.46;102851.50;5021368;28;20448;-81
2022/05/08 08:11:27;;;;;;;27.52;4.85;;;;;;;13.66;68.17;102848.22;5032371;28;20146;-83
2022/05/08 08:13:54;;;;;;;23.90;4.95;;;;;;;13.87;67.94;102860.81;5051934;28;20594;-84
2022/05/08 08:16:19;;;;;;;25.45;5.20;;;;;;;13.92;67.46;102847.81;5044897;28;20110;-83
2022/05/08 08:18:49;;;;;;;32.83;5.70;;;;;;;14.03;67.03;102853.09;5021165;28;20120;-83
2022/05/08 08:21:16;;;;;;;26.95;5.38;;;;;;;14.14;66.74;102842.25;5042469;28;20048;-84
2022/05/08 08:23:42;;;;;;;24.80;4.57;;;;;;;14.23;64.05;102850.50;5044675;28;20029;-83
2022/05/08 08:26:09;;;;;;;23.30;4.30;;;;;;;14.34;63.62;102858.44;5048817;28;20693;-84
2022/05/08 08:28:34;;;;;;;24.52;4.55;;;;;;;14.32;61.83;102849.66;5055755;28;20337;-85
2022/05/08 08:31:00;;;;;;;28.75;4.95;;;;;;;14.41;63.74;102853.38;5037208;28;20093;-83
2022/05/08 08:33:26;;;;;;;23.42;4.80;;;;;;;14.41;62.59;102853.38;5049458;28;20215;-83
2022/05/08 08:35:52;;;;;;;20.63;4.60;;;;;;;14.50;63.80;102847.19;5053436;28;20072;-82
2022/05/08 08:38:17;;;;;;;29.65;5.40;;;;;;;14.63;62.83;102853.19;5063351;28;20103;-83
2022/05/08 08:40:47;;;;;;;28.30;4.68;;;;;;;14.77;64.19;102860.00;5047446;28;20533;-83
2022/05/08 08:43:15;;;;;;;33.38;4.82;;;;;;;14.92;62.60;102853.22;5059002;28;20020;-78
2022/05/08 08:48:27;;;;;;;20.60;4.13;;;;;;;15.14;58.02;102853.06;5046346;28;20079;-84
2022/05/08 08:50:55;;;;;;;28.35;4.35;;;;;;;15.15;59.52;102854.78;5062449;28;20467;-83
2022/05/08 08:53:20;;;;;;;19.15;3.97;;;;;;;15.24;58.41;102859.31;5053830;28;20071;-83
2022/05/08 08:55:49;;;;;;;22.48;4.80;;;;;;;15.28;58.30;102856.19;5063694;28;20089;-84
2022/05/08 08:58:19;;;;;;;25.00;3.85;;;;;;;15.40;56.27;102853.34;5054889;28;20056;-84
2022/05/08 09:00:46;;;;;;;21.75;3.72;;;;;;;15.59;58.76;102855.16;5049191;28;20138;-83
2022/05/08 09:03:28;;;;;;;21.88;4.45;;;;;;;15.61;58.67;102855.84;5082691;28;20032;-82
2022/05/08 09:05:55;;;;;;;20.58;4.35;;;;;;;15.81;59.97;102860.22;5064299;28;20020;-82
2022/05/08 09:08:33;;;;;;;29.88;4.82;;;;;;;15.98;58.74;102852.38;5074627;28;20021;-82
2022/05/08 09:10:59;;;;;;;18.40;4.32;;;;;;;16.07;56.50;102847.94;5053376;28;20032;-79
2022/05/08 09:13:29;;;;;;;25.42;4.22;;;;;;;16.12;56.64;102856.44;5044632;28;20230;-83
2022/05/08 09:16:07;;;;;;;20.08;4.28;;;;;;;15.92;53.67;102848.44;5057194;28;20248;-86
2022/05/08 09:18:48;;;;;;;16.00;3.83;;;;;;;15.92;57.18;102845.75;5041368;28;20017;-83
2022/05/08 09:24:13;;;;;;;24.73;4.05;;;;;;;16.15;55.32;102850.75;5036597;28;20132;-85
2022/05/08 09:26:39;;;;;;;21.70;4.22;;;;;;;16.18;55.71;102842.38;5025976;28;20640;-85
2022/05/08 09:29:05;;;;;;;21.20;4.05;;;;;;;16.43;56.45;102857.00;5056681;28;20082;-83
2022/05/08 09:31:41;;;;;;;18.13;3.58;;;;;;;16.72;54.84;102848.72;5053971;28;20025;-83
2022/05/08 09:34:07;;;;;;;26.60;4.07;;;;;;;16.76;53.48;102838.47;5040179;28;20033;-86
2022/05/08 09:36:32;;;;;;;37.00;4.28;;;;;;;16.90;52.95;102850.63;5041665;28;20028;-86
2022/05/08 09:39:00;;;;;;;19.35;3.63;;;;;;;16.73;53.13;102846.88;5045471;28;20027;-86
2022/05/08 09:41:30;;;;;;;26.27;4.00;;;;;;;16.78;53.37;102849.97;5049353;28;20028;-86
2022/05/08 09:44:14;;;;;;;38.60;3.97;;;;;;;16.91;51.99;102845.06;5059940;28;20391;-84
2022/05/08 09:46:49;;;;;;;20.30;3.75;;;;;;;17.10;53.49;102837.81;5063197;28;20575;-81
2022/05/08 09:49:17;;;;;;;18.95;4.00;;;;;;;17.25;50.20;102852.44;5062406;28;20024;-85
2022/05/08 09:51:43;;;;;;;18.65;3.88;;;;;;;17.41;51.44;102846.31;5063527;28;20024;-83
2022/05/08 09:54:09;;;;;;;18.15;3.50;;;;;;;17.60;50.60;102845.28;5062612;28;20145;-86
2022/05/08 09:56:35;;;;;;;43.50;4.25;;;;;;;17.72;50.49;102845.88;5063042;28;20048;-86
2022/05/08 09:59:01;;;;;;;26.15;3.55;;;;;;;17.80;48.41;102845.91;5062296;28;20071;-85
2022/05/08 10:01:26;;;;;;;19.40;3.80;;;;;;;17.74;50.51;102849.25;5057825;28;20480;-85
2022/05/08 10:03:53;;;;;;;17.63;3.97;;;;;;;17.75;49.11;102850.94;5046240;28;20046;-86
2022/05/08 10:06:19;;;;;;;21.88;4.13;;;;;;;17.88;52.15;102842.44;5045549;28;20426;-86
2022/05/08 10:08:45;;;;;;;17.05;3.78;;;;;;;17.63;48.09;102842.25;5044047;28;20047;-83
2022/05/08 10:14:03;;;;;;;20.02;3.20;;;;;;;18.04;47.97;102831.72;5041715;28;20047;-84
2022/05/08 10:16:48;;;;;;;16.40;3.20;;;;;;;18.38;50.28;102835.38;5041861;28;20021;-86
2022/05/08 10:19:22;;;;;;;17.35;3.58;;;;;;;18.47;47.75;102831.69;5040378;28;20040;-87
2022/05/08 10:22:13;;;;;;;24.65;3.78;;;;;;;18.63;48.39;102825.47;5039588;28;20083;-84
2022/05/08 10:24:47;;;;;;;;;;;;;;;18.75;46.27;102823.28;5041157;28;20066;-85
2022/05/08 10:27:21;;;;;;;18.85;3.28;;;;;;;18.53;48.18;102827.47;5040687;28;19913;-85
2022/05/08 10:30:06;;;;;;;18.20;3.88;;;;;;;18.62;47.82;102815.69;5041855;28;20476;-85
2022/05/08 10:32:32;;;;;;;105.63;5.57;;;;;;;18.55;45.47;102820.91;5035095;28;20476;-82
2022/05/08 10:35:17;;;;;;;35.88;3.72;;;;;;;18.72;46.13;102805.53;5041631;28;20534;-83
2022/05/08 10:37:46;;;;;;;27.48;3.88;;;;;;;18.88;46.40;102812.00;5040448;28;20039;-82
2022/05/08 10:40:23;;;;;;;14.13;3.50;;;;;;;19.21;49.95;102807.41;5042203;28;20409;-83
2022/05/08 10:43:08;;;;;;;21.85;4.18;;;;;;;19.24;45.06;102806.25;5027879;28;20024;-83
2022/05/08 10:45:33;;;;;;;18.65;3.30;;;;;;;19.28;45.88;102802.16;5056234;28;20062;-81
2022/05/08 10:48:08;;;;;;;17.00;3.47;;;;;;;19.26;45.46;102806.91;5051184;28;20025;-84
2022/05/08 10:50:37;;;;;;;25.70;3.70;;;;;;;19.46;45.41;102794.69;5040463;28;20028;-84
2022/05/08 10:53:02;;;;;;;13.05;3.10;;;;;;;19.61;43.38;102794.00;5039226;28;20040;-85
2022/05/08 10:55:28;;;;;;;19.00;3.33;;;;;;;19.65;43.20;102801.59;5040008;28;20021;-85
2022/05/08 10:57:54;;;;;;;15.13;3.55;;;;;;;19.73;43.07;102804.28;5021679;28;20158;-85
2022/05/08 11:00:25;;;;;;;19.77;3.60;;;;;;;19.48;43.62;102802.66;5040220;28;20110;-84
2022/05/08 11:02:55;;;;;;;13.85;3.20;;;;;;;19.53;42.40;102797.56;5022792;28;20414;-84
2022/05/08 11:05:26;;;;;;;14.05;3.00;;;;;;;19.50;44.22;102801.47;5041044;28;20021;-83
2022/05/08 11:08:04;;;;;;;20.83;3.60;;;;;;;19.57;43.83;102798.91;5040864;28;20048;-85
2022/05/08 11:10:34;;;;;;;18.73;3.47;;;;;;;19.74;43.96;102797.00;5038093;28;20028;-84
2022/05/08 11:13:10;;;;;;;14.35;3.30;;;;;;;19.89;43.61;102802.56;5039595;28;20060;-86
2022/05/08 11:15:48;;;;;;;18.80;3.30;;;;;;;20.02;42.00;102804.72;5040659;28;20137;-85
2022/05/08 11:18:22;;;;;;;16.63;2.80;;;;;;;20.18;42.59;102804.66;5039088;28;20344;-84
2022/05/08 11:20:53;;;;;;;12.57;3.38;;;;;;;20.04;42.77;102798.09;5048920;28;20032;-85
2022/05/08 11:23:20;;;;;;;16.33;3.50;;;;;;;20.20;41.69;102796.34;5052260;28;20457;-86
2022/05/08 11:25:50;;;;;;;15.90;2.97;;;;;;;20.12;41.30;102792.63;5046642;28;20052;-83
2022/05/08 11:28:19;;;;;;;17.05;3.38;;;;;;;20.06;41.69;102795.19;5039353;28;20273;-86
2022/05/08 11:30:47;;;;;;;16.30;3.63;;;;;;;20.22;42.42;102797.00;5039593;28;20093;-86
2022/05/08 11:36:08;;;;;;;22.77;3.70;;;;;;;20.64;42.00;102795.78;5043570;28;20119;-84
2022/05/08 11:38:40;;;;;;;15.30;3.00;;;;;;;20.48;39.75;102792.13;5058185;28;20498;-84
2022/05/08 11:41:11;;;;;;;31.50;3.17;;;;;;;20.30;41.21;102791.53;5059089;28;20454;-85
2022/05/08 11:43:39;;;;;;;13.25;2.95;;;;;;;20.28;40.75;102783.56;5060373;28;20116;-84
2022/05/08 11:46:05;;;;;;;15.55;3.42;;;;;;;20.60;40.53;102784.38;5061357;28;20024;-85